Time;durP1;ratioP1;P1;durP2;ratioP2;P2;SDS_P1;SDS_P2;PMS_P1;PMS_P2;Temp;Humidity;BMP_temperature;BMP_pressure;BME280_temperature;BME280_humidity;BME280_pressure;Samples;Min_cycle;Max_cycle;Signal;HPM_P1;HPM_P2
2022/01/12 00:01:45;;;;;;;8.60;5.07;;;;;;;1.37;93.01;102536.69;5073432;28;20259;-79
2022/01/12 00:04:12;;;;;;;7.37;4.90;;;;;;;1.41;92.21;102540.28;5073501;28;20295;-80
2022/01/12 00:06:39;;;;;;;5.10;3.50;;;;;;;1.43;92.60;102547.31;5078573;28;20201;-80
2022/01/12 00:09:07;;;;;;;4.23;3.90;;;;;;;1.45;90.04;102589.44;5094397;28;20793;-79
2022/01/12 00:11:34;;;;;;;4.77;3.93;;;;;;;1.44;91.31;102587.66;5096864;28;20200;-79
2022/01/12 00:14:01;;;;;;;5.23;3.73;;;;;;;1.50;91.06;102589.69;5097696;28;20204;-79
2022/01/12 00:16:27;;;;;;;5.27;3.90;;;;;;;1.45;90.97;102579.16;5097351;28;20200;-79
2022/01/12 00:18:54;;;;;;;5.97;3.90;;;;;;;1.45;91.01;102586.88;5097837;28;20297;-79
2022/01/12 00:21:20;;;;;;;6.33;4.30;;;;;;;1.55;89.26;102626.84;5096982;28;20204;-79
2022/01/12 00:23:46;;;;;;;4.87;4.20;;;;;;;1.58;90.95;102616.69;5097171;28;20212;-79
2022/01/12 00:26:26;;;;;;;5.83;3.90;;;;;;;1.55;90.97;102594.28;5097433;28;20204;-79
2022/01/12 00:34:23;;;;;;;6.53;4.30;;;;;;;1.65;92.05;102566.44;5096598;28;20322;-78
2022/01/12 00:36:50;;;;;;;4.77;4.07;;;;;;;1.63;90.92;102574.09;5080691;28;20201;-79
2022/01/12 00:39:16;;;;;;;4.87;3.93;;;;;;;1.76;91.77;102573.91;5096032;28;20263;-79
2022/01/12 00:41:44;;;;;;;5.00;3.77;;;;;;;1.78;91.82;102571.41;5096818;28;20254;-79
2022/01/12 00:44:21;;;;;;;4.20;3.80;;;;;;;1.77;91.94;102559.34;5097573;28;20616;-79
2022/01/12 00:46:48;;;;;;;5.33;3.73;;;;;;;1.72;91.59;102569.38;5097000;28;20203;-79
2022/01/12 00:49:15;;;;;;;6.97;3.73;;;;;;;1.78;91.59;102556.84;5096927;28;20228;-79
2022/01/12 00:51:41;;;;;;;5.03;4.23;;;;;;;1.73;91.20;102550.56;5096061;28;20200;-79
2022/01/12 00:54:08;;;;;;;6.10;3.53;;;;;;;1.76;92.28;102543.03;5097492;28;20200;-79
2022/01/12 00:56:35;;;;;;;4.53;3.60;;;;;;;1.82;92.08;102539.84;5096362;28;20204;-80
2022/01/12 00:59:03;;;;;;;4.53;4.07;;;;;;;1.80;91.98;102538.88;5095652;28;20767;-79
2022/01/12 01:01:30;;;;;;;5.83;4.03;;;;;;;1.86;91.80;102538.31;5096233;28;20200;-79
2022/01/12 01:03:56;;;;;;;4.90;3.90;;;;;;;1.79;90.33;102550.88;5097027;28;20265;-80
2022/01/12 01:06:23;;;;;;;4.37;3.80;;;;;;;1.90;90.13;102587.50;5082178;28;20716;-79
2022/01/12 01:08:51;;;;;;;6.37;3.30;;;;;;;1.97;91.19;102576.69;5086604;22;20229;-77
2022/01/12 01:11:18;;;;;;;6.07;3.83;;;;;;;1.92;90.93;102552.41;5051024;28;20209;-74
2022/01/12 01:13:56;;;;;;;6.47;4.23;;;;;;;2.01;90.39;102572.59;5052921;28;20213;-76
2022/01/12 01:16:28;;;;;;;4.33;3.93;;;;;;;2.06;89.30;102596.00;5053710;28;20186;-77
2022/01/12 01:27:06;;;;;;;3.33;2.97;;;;;;;2.14;86.38;102682.28;5052941;28;20189;-77
2022/01/12 01:29:33;;;;;;;4.40;3.03;;;;;;;2.19;86.58;102693.72;5052787;28;20723;-77
2022/01/12 01:32:01;;;;;;;5.17;3.63;;;;;;;2.23;84.43;102739.44;5053073;28;20206;-77
2022/01/12 01:34:28;;;;;;;5.00;2.87;;;;;;;2.33;83.00;102812.97;5052942;28;20212;-76
2022/01/12 01:36:56;;;;;;;4.80;3.20;;;;;;;2.44;83.31;102834.16;5053111;28;20205;-76
2022/01/12 01:39:24;;;;;;;4.67;3.03;;;;;;;2.43;84.10;102814.34;5052164;28;20229;-77
2022/01/12 01:41:53;;;;;;;3.90;3.50;;;;;;;2.38;82.89;102825.31;5044477;28;20201;-77
2022/01/12 01:55:15;;;;;;;3.33;2.33;;;;;;;2.16;89.20;102666.09;5052182;28;20208;-78
2022/01/12 01:57:42;;;;;;;4.40;3.07;;;;;;;2.16;87.75;102691.88;5051848;28;20214;-77
2022/01/12 02:00:11;;;;;;;5.57;2.93;;;;;;;2.15;88.26;102696.94;5052057;28;20225;-77
2022/01/12 02:02:38;;;;;;;3.77;2.97;;;;;;;2.21;88.91;102680.91;5052511;28;20267;-77
2022/01/12 02:05:06;;;;;;;3.80;3.40;;;;;;;2.07;87.65;102675.06;5052780;28;20232;-77
2022/01/12 02:07:33;;;;;;;5.33;3.10;;;;;;;2.09;88.38;102683.75;5052340;28;20216;-77
2022/01/12 02:09:59;;;;;;;5.63;3.80;;;;;;;2.23;88.20;102697.34;5051083;28;20671;-77
2022/01/12 02:12:27;;;;;;;5.10;4.03;;;;;;;2.25;86.71;102742.97;5044439;28;20259;-77
2022/01/12 02:14:54;;;;;;;4.87;3.20;;;;;;;2.19;86.26;102764.16;5052245;28;20300;-77
2022/01/12 02:17:25;;;;;;;4.30;3.63;;;;;;;2.21;83.34;102814.91;5052178;28;20202;-77
2022/01/12 02:20:09;;;;;;;4.17;3.77;;;;;;;2.32;84.19;102835.28;5051394;28;20616;-77
2022/01/12 02:36:29;;;;;;;5.10;4.10;;;;;;;2.42;85.66;102813.47;5051690;28;20212;-78
2022/01/12 02:41:41;;;;;;;6.67;4.20;;;;;;;2.41;87.12;102775.59;5034184;28;20190;-77
2022/01/12 02:55:08;;;;;;;7.30;4.47;;;;;;;2.39;81.78;102898.34;5031199;28;20189;-77
2022/01/12 02:57:34;;;;;;;5.73;3.33;;;;;;;2.48;82.77;102890.22;5031099;28;20241;-77
2022/01/12 03:00:06;;;;;;;4.47;3.63;;;;;;;2.50;84.73;102834.50;5031330;28;20225;-75
2022/01/12 03:02:35;;;;;;;5.73;4.00;;;;;;;2.52;84.22;102826.03;5031940;28;20288;-76
2022/01/12 03:05:22;;;;;;;3.60;3.30;;;;;;;2.42;82.08;102870.19;5031428;28;20206;-78
2022/01/12 03:07:49;;;;;;;6.30;4.17;;;;;;;2.52;82.38;102895.63;5031612;28;20210;-78
2022/01/12 03:10:17;;;;;;;4.90;4.20;;;;;;;2.48;82.05;102893.69;5045861;28;20213;-77
2022/01/12 03:12:45;;;;;;;7.73;5.13;;;;;;;2.55;81.67;102892.31;5045854;28;20201;-77
2022/01/12 03:15:12;;;;;;;5.07;4.57;;;;;;;2.62;82.52;102886.72;5051542;28;20209;-76
2022/01/12 03:17:39;;;;;;;5.63;3.70;;;;;;;2.61;83.59;102866.00;5051472;28;20263;-77
2022/01/12 03:20:07;;;;;;;5.87;3.57;;;;;;;2.65;85.57;102814.66;5050823;28;20703;-76
2022/01/12 03:22:34;;;;;;;5.47;3.90;;;;;;;2.65;85.21;102804.34;5051143;28;20628;-76
2022/01/12 03:25:01;;;;;;;5.20;4.07;;;;;;;2.68;85.92;102791.63;5051087;28;20255;-77
2022/01/12 03:27:29;;;;;;;4.10;3.60;;;;;;;2.65;85.70;102783.72;5051367;28;20209;-76
2022/01/12 03:29:56;;;;;;;5.37;4.27;;;;;;;2.62;85.40;102803.28;5050773;28;20951;-77
2022/01/12 03:32:30;;;;;;;5.10;4.07;;;;;;;2.68;84.59;102812.25;5051225;28;20209;-77
2022/01/12 03:35:07;;;;;;;4.57;3.60;;;;;;;2.75;84.79;102809.16;5051067;28;20646;-76
2022/01/12 03:37:42;;;;;;;5.00;3.93;;;;;;;2.72;85.56;102788.38;5051371;28;20275;-76
2022/01/12 03:40:10;;;;;;;4.77;4.00;;;;;;;2.72;86.76;102766.88;5048881;28;20232;-77
2022/01/12 03:42:38;;;;;;;4.73;4.27;;;;;;;2.65;86.20;102745.03;5048067;28;20260;-77
2022/01/12 03:45:06;;;;;;;4.37;3.97;;;;;;;2.67;85.63;102773.47;5055086;28;20623;-77
2022/01/12 03:47:32;;;;;;;6.20;4.00;;;;;;;2.66;83.62;102813.88;5055135;28;20205;-78
2022/01/12 03:49:58;;;;;;;5.77;4.43;;;;;;;2.72;83.28;102828.78;5054509;28;20225;-77
2022/01/12 03:52:25;;;;;;;4.40;4.00;;;;;;;2.72;83.31;102829.66;5054945;28;20209;-77
2022/01/12 03:54:51;;;;;;;5.30;4.10;;;;;;;2.65;83.66;102830.13;5054504;28;20927;-77
2022/01/12 03:57:19;;;;;;;4.73;4.13;;;;;;;2.70;84.59;102812.34;5054904;28;20235;-77
2022/01/12 03:59:46;;;;;;;5.30;4.87;;;;;;;2.69;84.92;102795.94;5053565;28;20225;-77
2022/01/12 04:02:13;;;;;;;4.87;4.40;;;;;;;2.70;84.53;102800.31;5054738;28;20206;-77
2022/01/12 04:05:03;;;;;;;4.30;3.60;;;;;;;2.59;83.94;102822.94;5054647;28;20301;-76
2022/01/12 04:10:09;;;;;;;4.73;3.87;;;;;;;2.73;85.40;102802.16;5052401;28;20266;-77
2022/01/12 04:12:36;;;;;;;4.13;3.67;;;;;;;2.59;85.57;102806.59;5048271;28;20252;-77
2022/01/12 04:15:04;;;;;;;4.70;4.20;;;;;;;2.64;86.38;102781.97;5054323;28;20233;-76
2022/01/12 04:17:31;;;;;;;4.27;3.47;;;;;;;2.62;86.10;102767.19;5054263;28;20620;-76
2022/01/12 04:19:58;;;;;;;4.23;3.83;;;;;;;2.63;87.54;102726.03;5053875;28;20241;-77
2022/01/12 04:25:08;;;;;;;5.50;4.40;;;;;;;2.55;84.78;102779.78;5054024;28;20208;-77
2022/01/12 04:27:36;;;;;;;5.27;3.60;;;;;;;2.60;84.66;102810.97;5054283;28;20205;-77
2022/01/12 04:30:04;;;;;;;5.30;4.17;;;;;;;2.56;83.40;102829.66;5053941;28;20245;-77
2022/01/12 04:32:30;;;;;;;5.17;4.07;;;;;;;2.64;83.50;102837.81;5054138;28;20209;-76
2022/01/12 04:34:58;;;;;;;6.30;3.80;;;;;;;2.72;83.65;102836.50;5054110;28;20725;-77
2022/01/12 04:37:24;;;;;;;6.00;3.93;;;;;;;2.69;82.35;102862.13;5054023;28;20201;-77
2022/01/12 04:39:51;;;;;;;5.97;4.23;;;;;;;2.76;83.07;102867.69;5053343;28;20245;-77
2022/01/12 04:42:18;;;;;;;5.43;4.87;;;;;;;2.81;82.86;102865.34;5045697;28;20201;-77
2022/01/12 04:44:47;;;;;;;6.10;3.80;;;;;;;2.74;82.53;102877.03;5054110;28;20562;-77
2022/01/12 04:47:28;;;;;;;5.00;4.07;;;;;;;2.81;82.35;102879.94;5053615;28;20288;-77
2022/01/12 04:49:56;;;;;;;4.63;4.00;;;;;;;2.66;80.93;102905.81;5053560;28;20221;-77
2022/01/12 04:52:23;;;;;;;4.60;4.07;;;;;;;2.73;82.81;102877.81;5052937;28;20213;-77
2022/01/12 04:54:49;;;;;;;4.37;3.97;;;;;;;2.73;82.65;102864.94;5053241;28;20216;-75
2022/01/12 04:57:15;;;;;;;7.53;4.40;;;;;;;2.83;81.94;102865.41;5053907;28;20205;-78
2022/01/12 04:59:57;;;;;;;5.47;4.77;;;;;;;2.78;81.90;102883.25;5052644;28;20237;-77
2022/01/12 05:08:09;;;;;;;6.10;4.83;;;;;;;2.82;81.93;102895.50;5053452;28;20350;-77
2022/01/12 05:13:19;;;;;;;5.37;4.77;;;;;;;2.80;82.24;102914.28;5041460;28;20220;-77
2022/01/12 05:15:45;;;;;;;6.23;5.33;;;;;;;2.80;82.51;102915.16;5053504;28;20206;-77
2022/01/12 05:18:13;;;;;;;4.83;4.20;;;;;;;2.77;82.58;102907.25;5053141;28;20229;-76
2022/01/12 05:20:39;;;;;;;4.43;4.03;;;;;;;2.82;82.22;102908.38;5052599;28;20711;-77
2022/01/12 05:23:05;;;;;;;4.63;4.13;;;;;;;2.82;82.54;102915.25;5053077;28;20680;-77
2022/01/12 05:25:32;;;;;;;5.80;5.20;;;;;;;2.87;82.87;102908.63;5052617;28;20668;-76
2022/01/12 05:27:58;;;;;;;7.33;4.53;;;;;;;2.84;81.78;102921.38;5053143;28;20255;-77
2022/01/12 05:30:25;;;;;;;6.53;5.30;;;;;;;2.87;82.47;102906.91;5052639;28;20267;-77
2022/01/12 05:32:51;;;;;;;5.50;4.80;;;;;;;2.83;81.63;102917.00;5053114;28;20255;-78
2022/01/12 05:35:20;;;;;;;5.27;4.87;;;;;;;2.86;82.10;102922.34;5053136;28;20274;-77
2022/01/12 05:37:47;;;;;;;6.53;5.27;;;;;;;2.82;82.65;102918.72;5052722;28;20206;-75
2022/01/12 05:40:16;;;;;;;6.30;5.60;;;;;;;2.82;82.83;102916.13;5050297;28;20229;-76
2022/01/12 05:42:43;;;;;;;6.03;4.83;;;;;;;2.68;82.44;102930.00;5047221;28;20201;-76
2022/01/12 05:45:11;;;;;;;6.03;5.47;;;;;;;2.58;82.80;102924.31;5052673;28;20664;-78
2022/01/12 05:49:33;;;;;;;5.57;4.83;;;;;;;2.40;83.50;102915.59;5052564;28;20205;-77
2022/01/12 05:50:28;;;;;;;7.37;5.77;;;;;;;2.31;84.11;102892.78;5052209;28;20220;-78
2022/01/12 05:52:55;;;;;;;7.40;6.03;;;;;;;2.22;84.65;102883.66;5052724;28;20245;-78
2022/01/12 05:55:22;;;;;;;6.63;6.03;;;;;;;2.26;83.95;102890.75;5052639;28;20629;-77
2022/01/12 05:57:48;;;;;;;6.33;5.57;;;;;;;2.30;84.86;102875.56;5052223;28;20617;-76
2022/01/12 06:00:18;;;;;;;6.10;5.50;;;;;;;2.30;84.55;102877.22;5052165;28;20678;-77
2022/01/12 06:02:44;;;;;;;6.97;4.87;;;;;;;2.32;84.45;102873.94;5052621;28;20201;-77
2022/01/12 06:05:11;;;;;;;7.07;6.37;;;;;;;2.36;85.22;102868.16;5052209;28;20205;-76
2022/01/12 06:07:39;;;;;;;7.30;5.60;;;;;;;2.47;84.86;102860.97;5052475;28;20213;-77
2022/01/12 06:10:06;;;;;;;8.87;6.53;;;;;;;2.58;85.04;102849.56;5050233;28;20229;-77
2022/01/12 06:12:32;;;;;;;6.07;5.30;;;;;;;2.56;85.64;102851.16;5045057;28;20551;-76
2022/01/12 06:14:58;;;;;;;7.73;5.83;;;;;;;2.67;85.00;102851.72;5052398;28;20275;-78
2022/01/12 06:17:25;;;;;;;6.47;5.80;;;;;;;2.60;84.68;102878.00;5052330;28;20259;-77
2022/01/12 06:19:51;;;;;;;6.50;5.80;;;;;;;2.37;84.60;102875.06;5052012;28;20229;-78
2022/01/12 06:22:17;;;;;;;6.47;5.50;;;;;;;2.29;85.09;102854.84;5051987;28;20263;-76
2022/01/12 06:24:45;;;;;;;8.07;5.73;;;;;;;2.13;84.88;102859.16;5051553;28;20699;-77
2022/01/12 06:27:15;;;;;;;7.87;6.27;;;;;;;2.19;85.27;102850.88;5052145;28;20251;-77
2022/01/12 06:29:44;;;;;;;6.90;6.20;;;;;;;2.21;85.63;102841.53;5051696;28;20649;-77
2022/01/12 06:32:10;;;;;;;11.17;7.00;;;;;;;2.17;86.95;102826.72;5051682;28;20676;-76
2022/01/12 06:34:37;;;;;;;7.07;6.37;;;;;;;2.10;87.62;102788.53;5051899;28;20209;-77
2022/01/12 06:37:04;;;;;;;14.87;6.90;;;;;;;2.11;88.71;102767.16;5045013;28;20201;-77
2022/01/12 06:39:30;;;;;;;6.90;6.20;;;;;;;2.13;88.94;102750.97;5025514;28;20225;-77
2022/01/12 06:41:58;;;;;;;7.93;6.87;;;;;;;2.16;88.43;102755.38;5031115;28;20203;-77
2022/01/12 06:44:26;;;;;;;7.70;6.90;;;;;;;2.12;89.07;102746.63;5022055;28;20202;-77
2022/01/12 06:46:53;;;;;;;7.90;7.13;;;;;;;2.16;88.15;102765.69;5020269;28;20198;-77
2022/01/12 06:52:13;;;;;;;7.60;6.80;;;;;;;2.21;88.66;102768.53;5021881;28;20244;-78
2022/01/12 06:54:40;;;;;;;7.63;6.83;;;;;;;2.18;88.69;102770.13;5022482;28;20265;-78
2022/01/12 06:57:07;;;;;;;6.83;6.03;;;;;;;2.26;88.25;102760.22;5019669;28;20815;-76
2022/01/12 06:59:34;;;;;;;7.00;6.30;;;;;;;2.27;88.09;102774.88;5019110;28;20696;-78
2022/01/12 07:02:00;;;;;;;7.20;5.93;;;;;;;2.32;88.21;102785.41;5022123;28;20734;-76
2022/01/12 07:04:26;;;;;;;7.87;6.17;;;;;;;2.21;88.09;102796.88;5020858;28;20203;-75
2022/01/12 07:06:53;;;;;;;7.20;6.60;;;;;;;2.19;88.48;102794.19;5020207;28;20210;-76
2022/01/12 07:09:19;;;;;;;9.87;7.30;;;;;;;2.26;88.91;102793.72;5064637;22;20235;-76
2022/01/12 07:11:47;;;;;;;7.93;7.10;;;;;;;2.31;89.03;102786.22;5086032;28;20202;-77
2022/01/12 07:14:15;;;;;;;8.30;6.90;;;;;;;2.33;88.80;102785.50;5082491;28;20200;-77
2022/01/12 07:16:41;;;;;;;7.53;6.60;;;;;;;2.37;88.59;102783.97;5083018;28;20196;-77
2022/01/12 07:19:08;;;;;;;8.97;8.07;;;;;;;2.37;89.29;102778.81;5088478;28;20220;-78
2022/01/12 07:21:34;;;;;;;12.03;7.57;;;;;;;2.42;88.87;102779.06;5086308;28;20213;-77
2022/01/12 07:24:01;;;;;;;8.17;7.37;;;;;;;2.30;88.81;102780.19;5084800;28;20270;-77
2022/01/12 07:26:27;;;;;;;8.23;7.43;;;;;;;2.28;89.76;102768.03;5087143;28;20199;-80
2022/01/12 07:28:54;;;;;;;10.90;8.13;;;;;;;2.32;89.91;102765.72;5086290;28;20254;-78
2022/01/12 07:31:21;;;;;;;9.83;8.83;;;;;;;2.27;89.76;102764.56;5084692;28;20251;-80
2022/01/12 07:33:49;;;;;;;10.10;8.20;;;;;;;2.32;89.50;102765.72;5086272;28;20264;-77
2022/01/12 07:36:16;;;;;;;11.20;9.50;;;;;;;2.38;89.36;102767.72;5087107;28;20285;-79
2022/01/12 07:38:42;;;;;;;12.47;8.83;;;;;;;2.46;89.62;102779.31;5084632;28;20205;-78
2022/01/12 07:41:09;;;;;;;13.13;9.93;;;;;;;2.47;89.73;102787.94;5081995;28;20274;-77
2022/01/12 07:43:35;;;;;;;10.13;9.13;;;;;;;2.49;89.78;102782.03;5085878;28;20197;-80
2022/01/12 07:46:02;;;;;;;10.90;9.87;;;;;;;2.47;90.13;102772.47;5084218;28;20250;-79
2022/01/12 07:48:29;;;;;;;11.33;10.17;;;;;;;2.44;90.57;102761.97;5081927;28;20212;-77
2022/01/12 07:50:56;;;;;;;11.67;10.47;;;;;;;2.49;91.11;102769.16;5081749;28;20698;-78
2022/01/12 07:53:22;;;;;;;13.83;11.23;;;;;;;2.46;91.66;102755.22;5087107;28;20245;-81
2022/01/12 07:55:49;;;;;;;13.80;12.43;;;;;;;2.45;91.32;102750.88;5083456;28;20664;-80
2022/01/12 07:58:15;;;;;;;14.17;12.60;;;;;;;2.36;92.37;102746.16;5086193;28;20196;-79
2022/01/12 08:00:41;;;;;;;13.90;12.60;;;;;;;2.37;92.08;102732.44;5084559;28;20251;-79
2022/01/12 08:03:08;;;;;;;14.77;13.00;;;;;;;2.37;92.09;102735.88;5085790;28;20425;-80
2022/01/12 08:05:35;;;;;;;13.27;12.10;;;;;;;2.23;93.25;102728.25;5087174;28;20618;-81
2022/01/12 08:08:02;;;;;;;14.50;12.87;;;;;;;2.19;93.19;102704.91;5082526;28;20239;-77
2022/01/12 08:10:28;;;;;;;13.73;12.50;;;;;;;2.21;93.63;102701.53;5083188;28;20220;-78
2022/01/12 08:12:55;;;;;;;16.67;13.80;;;;;;;2.36;93.35;102704.91;5088468;28;20204;-79
2022/01/12 08:15:21;;;;;;;23.20;17.50;;;;;;;2.36;92.90;102721.25;5096778;28;20200;-78
2022/01/12 08:17:47;;;;;;;13.83;12.43;;;;;;;2.39;92.83;102730.81;5087366;28;20193;-79
2022/01/12 08:20:17;;;;;;;13.93;12.43;;;;;;;2.28;93.26;102737.09;5084950;28;20634;-80
2022/01/12 08:22:45;;;;;;;14.43;13.03;;;;;;;2.24;93.64;102722.28;5087626;28;20286;-77
2022/01/12 08:25:11;;;;;;;15.80;14.03;;;;;;;2.26;93.38;102725.81;5093941;28;20200;-78
2022/01/12 08:27:39;;;;;;;16.97;15.27;;;;;;;2.25;94.07;102706.03;5075852;28;20638;-77
2022/01/12 08:30:15;;;;;;;16.07;14.50;;;;;;;2.21;94.10;102704.09;5080936;28;20219;-79
2022/01/12 08:32:42;;;;;;;17.20;15.50;;;;;;;2.22;94.37;102700.72;5085329;28;20208;-78
2022/01/12 08:35:08;;;;;;;19.20;13.53;;;;;;;2.18;94.23;102689.34;5084130;28;20205;-79
2022/01/12 08:37:35;;;;;;;16.20;14.50;;;;;;;2.25;94.98;102681.16;5084586;28;20727;-80
2022/01/12 08:40:03;;;;;;;19.03;15.30;;;;;;;2.23;94.63;102687.03;5084823;28;20231;-79
2022/01/12 08:42:30;;;;;;;19.93;15.83;;;;;;;2.22;95.03;102680.09;5085968;28;20243;-80
2022/01/12 08:44:59;;;;;;;21.63;16.13;;;;;;;2.27;95.16;102676.06;5083991;28;20287;-79
2022/01/12 08:47:26;;;;;;;18.23;16.13;;;;;;;2.30;94.98;102689.09;5082784;28;20199;-77
2022/01/12 08:49:52;;;;;;;18.00;16.23;;;;;;;2.33;94.94;102699.56;5074655;28;20220;-77
2022/01/12 08:52:18;;;;;;;16.90;15.10;;;;;;;2.41;94.56;102698.28;5077812;28;20611;-77
2022/01/12 08:54:45;;;;;;;18.70;14.67;;;;;;;2.48;94.36;102697.78;5085829;28;20667;-78
2022/01/12 08:57:12;;;;;;;17.83;16.17;;;;;;;2.48;94.54;102699.47;5087973;28;20674;-77
2022/01/12 08:59:39;;;;;;;18.00;15.40;;;;;;;2.49;94.60;102691.81;5094830;28;20726;-78
2022/01/12 09:02:06;;;;;;;17.20;15.43;;;;;;;2.69;95.24;102669.59;5091010;28;20661;-78
2022/01/12 09:04:32;;;;;;;18.13;15.47;;;;;;;2.59;94.24;102701.78;5075709;28;20196;-80
2022/01/12 09:06:59;;;;;;;17.03;15.27;;;;;;;2.66;94.91;102704.69;5074814;28;20208;-77
2022/01/12 09:09:26;;;;;;;19.87;16.43;;;;;;;2.89;96.00;102665.41;5073571;28;20283;-77
2022/01/12 09:11:53;;;;;;;19.03;16.30;;;;;;;2.89;94.95;102683.47;5075608;28;20261;-77
2022/01/12 09:14:21;;;;;;;17.33;15.50;;;;;;;2.79;94.37;102707.03;5083333;28;20208;-77
2022/01/12 09:16:54;;;;;;;18.60;16.83;;;;;;;2.84;94.65;102694.41;5085450;28;20262;-78
2022/01/12 09:19:20;;;;;;;20.07;18.17;;;;;;;2.74;95.00;102693.06;5054738;28;20256;-78
2022/01/12 09:21:47;;;;;;;18.37;16.63;;;;;;;2.67;95.49;102688.38;5054406;28;20715;-78
2022/01/12 09:24:13;;;;;;;21.13;18.20;;;;;;;2.70;95.54;102678.25;5054644;28;20202;-78
2022/01/12 09:26:40;;;;;;;20.67;18.57;;;;;;;2.60;95.34;102687.22;5053250;28;20259;-78
2022/01/12 09:29:06;;;;;;;22.57;19.70;;;;;;;2.63;95.87;102679.63;5054732;28;20221;-78
2022/01/12 09:31:35;;;;;;;21.50;19.30;;;;;;;2.58;96.40;102668.22;5054848;28;20201;-79
2022/01/12 09:34:01;;;;;;;28.80;20.27;;;;;;;2.62;96.38;102666.63;5065397;28;20201;-78
2022/01/12 09:36:28;;;;;;;24.40;20.40;;;;;;;2.58;96.83;102675.94;5075117;28;20204;-78
2022/01/12 09:38:54;;;;;;;31.07;21.00;;;;;;;2.63;97.33;102658.13;5074138;28;20667;-77
2022/01/12 09:41:24;;;;;;;29.53;21.73;;;;;;;2.60;96.97;102661.44;5073647;28;20224;-81
2022/01/12 09:43:51;;;;;;;23.50;20.30;;;;;;;2.59;96.77;102665.69;5077414;28;20667;-80
2022/01/12 09:46:18;;;;;;;31.20;21.00;;;;;;;2.93;97.85;102651.88;5075332;28;20205;-80
2022/01/12 09:48:46;;;;;;;29.33;22.17;;;;;;;2.96;97.06;102669.19;5074805;28;20201;-78
2022/01/12 09:51:13;;;;;;;31.87;21.60;;;;;;;3.04;97.02;102675.59;5073038;28;20211;-78
2022/01/12 09:53:41;;;;;;;26.80;20.90;;;;;;;2.96;96.41;102692.41;5074447;28;20679;-78
2022/01/12 09:56:16;;;;;;;28.13;21.50;;;;;;;2.84;96.07;102713.34;5074302;28;20331;-78
2022/01/12 09:58:42;;;;;;;26.53;21.67;;;;;;;2.80;96.40;102702.78;5073791;28;20204;-77
2022/01/12 10:01:09;;;;;;;31.57;23.10;;;;;;;2.70;96.50;102697.16;5076110;28;20212;-80
2022/01/12 10:03:36;;;;;;;26.60;22.17;;;;;;;2.67;96.48;102689.25;5079905;28;20219;-77
2022/01/12 10:06:14;;;;;;;30.00;23.47;;;;;;;2.68;97.41;102670.44;5085263;28;20703;-77
2022/01/12 10:08:40;;;;;;;35.87;23.90;;;;;;;2.68;97.58;102664.38;5074003;28;20721;-80
2022/01/12 10:11:09;;;;;;;39.70;25.17;;;;;;;2.68;98.24;102654.06;5073279;28;20675;-78
2022/01/12 10:13:37;;;;;;;38.93;25.53;;;;;;;2.69;98.24;102648.09;5074347;28;20256;-77
2022/01/12 10:16:12;;;;;;;42.80;26.60;;;;;;;2.88;98.72;102642.16;5073685;28;20200;-77
2022/01/12 10:18:47;;;;;;;41.47;25.63;;;;;;;2.82;98.13;102654.75;5073217;28;20200;-79
2022/01/12 10:21:27;;;;;;;36.53;26.30;;;;;;;2.71;98.85;102654.22;5073531;28;20270;-80
2022/01/12 10:23:58;;;;;;;44.37;26.27;;;;;;;2.73;99.01;102637.13;5073457;28;20277;-78
2022/01/12 10:26:30;;;;;;;43.30;25.97;;;;;;;2.80;99.43;102622.84;5072761;28;20209;-77
2022/01/12 10:29:02;;;;;;;41.67;26.93;;;;;;;2.75;99.60;102620.03;5073667;28;20204;-77
2022/01/12 10:31:29;;;;;;;47.80;28.33;;;;;;;2.66;100.00;102610.16;5074032;28;20205;-81
2022/01/12 10:34:03;;;;;;;48.33;27.40;;;;;;;2.74;100.00;102593.38;5069978;28;20222;-79
2022/01/12 10:36:38;;;;;;;49.53;28.63;;;;;;;2.70;100.00;102569.94;5070705;28;20231;-79
2022/01/12 10:39:09;;;;;;;44.53;28.03;;;;;;;2.93;100.00;102546.13;5072286;28;20224;-78
2022/01/12 10:41:36;;;;;;;48.60;27.90;;;;;;;3.11;100.00;102546.09;5072824;28;20217;-78
2022/01/12 10:44:03;;;;;;;46.73;29.50;;;;;;;3.04;100.00;102549.19;5073215;28;20209;-78
2022/01/12 10:46:31;;;;;;;45.27;27.40;;;;;;;2.96;100.00;102551.41;5073635;28;20208;-77
2022/01/12 10:48:59;;;;;;;49.97;29.43;;;;;;;3.24;100.00;102538.91;5072509;28;20204;-77
2022/01/12 10:51:27;;;;;;;43.03;28.37;;;;;;;3.12;100.00;102540.09;5072320;28;20207;-79
2022/01/12 10:54:00;;;;;;;42.17;26.17;;;;;;;3.07;100.00;102549.34;5072274;28;20212;-77
2022/01/12 10:56:27;;;;;;;43.57;27.67;;;;;;;3.24;100.00;102546.63;5071938;28;20645;-78
2022/01/12 10:58:55;;;;;;;57.30;28.90;;;;;;;3.43;100.00;102549.22;5072341;28;20758;-78
2022/01/12 11:01:24;;;;;;;46.67;28.53;;;;;;;3.52;100.00;102554.78;5072128;28;20224;-78
2022/01/12 11:03:51;;;;;;;35.97;26.40;;;;;;;3.28;100.00;102580.38;5072679;28;20204;-78
2022/01/12 11:06:17;;;;;;;38.13;26.60;;;;;;;3.03;100.00;102582.66;5072255;28;20205;-78
2022/01/12 11:08:47;;;;;;;37.37;25.97;;;;;;;3.11;100.00;102577.03;5072716;28;20205;-79
2022/01/12 11:11:18;;;;;;;69.60;36.23;;;;;;;3.17;100.00;102567.00;5072337;28;20232;-78
2022/01/12 11:13:46;;;;;;;71.23;35.37;;;;;;;3.13;100.00;102577.09;5077129;28;20201;-80
2022/01/12 11:16:12;;;;;;;41.67;27.67;;;;;;;3.16;100.00;102593.59;5080713;28;20232;-80
2022/01/12 11:18:40;;;;;;;41.33;26.63;;;;;;;3.25;100.00;102597.41;5074324;28;20208;-80
2022/01/12 11:21:11;;;;;;;39.03;27.87;;;;;;;3.29;100.00;102607.06;5071961;28;20291;-80
2022/01/12 11:23:39;;;;;;;39.67;26.53;;;;;;;3.40;100.00;102611.03;5073923;28;20205;-80
2022/01/12 11:26:19;;;;;;;40.77;26.80;;;;;;;3.15;100.00;102620.25;5072924;28;20271;-80
2022/01/12 11:28:48;;;;;;;42.57;26.57;;;;;;;3.19;100.00;102616.06;5073373;28;20212;-80
2022/01/12 11:31:18;;;;;;;49.60;30.77;;;;;;;3.25;100.00;102612.91;5074173;28;20210;-80
2022/01/12 11:33:45;;;;;;;43.37;29.10;;;;;;;3.37;100.00;102616.94;5074581;28;20212;-80
2022/01/12 11:36:18;;;;;;;41.57;28.53;;;;;;;3.34;99.51;102627.13;5075097;28;20553;-80
2022/01/12 11:38:47;;;;;;;45.77;29.33;;;;;;;3.41;99.37;102640.31;5075799;28;20212;-80
2022/01/12 11:41:21;;;;;;;44.17;29.60;;;;;;;3.04;99.37;102641.19;5080343;28;20225;-80
2022/01/12 11:43:50;;;;;;;43.97;27.53;;;;;;;3.00;100.00;102628.97;5081991;28;20246;-80
2022/01/12 11:46:19;;;;;;;47.97;30.13;;;;;;;2.93;100.00;102617.44;5084162;28;20216;-80
2022/01/12 11:48:48;;;;;;;51.13;30.47;;;;;;;3.08;100.00;102607.84;5081122;28;20197;-80
2022/01/12 11:51:18;;;;;;;49.13;30.27;;;;;;;3.21;100.00;102603.25;5081384;28;20200;-81
2022/01/12 11:53:46;;;;;;;47.17;28.33;;;;;;;3.12;100.00;102617.50;5077744;28;20274;-80
2022/01/12 11:56:17;;;;;;;44.57;27.10;;;;;;;3.15;100.00;102624.50;5084560;28;20193;-81
2022/01/12 11:58:59;;;;;;;48.83;30.17;;;;;;;3.05;100.00;102636.06;5083848;28;20196;-79
2022/01/12 12:01:38;;;;;;;48.67;30.43;;;;;;;3.05;100.00;102623.19;5081144;28;20294;-79
2022/01/12 12:04:05;;;;;;;47.17;28.60;;;;;;;3.12;100.00;102620.09;5089132;28;20678;-79
2022/01/12 12:06:32;;;;;;;50.23;29.57;;;;;;;3.28;100.00;102615.63;5080867;28;20724;-80
2022/01/12 12:09:01;;;;;;;52.17;30.13;;;;;;;3.32;99.97;102623.59;5078011;28;20213;-80
2022/01/12 12:11:28;;;;;;;49.83;29.60;;;;;;;3.48;100.00;102626.88;5070752;28;20633;-81
2022/01/12 12:14:04;;;;;;;47.47;28.63;;;;;;;3.37;98.82;102649.63;5078120;28;20686;-80
2022/01/12 12:16:31;;;;;;;49.03;28.07;;;;;;;3.35;98.86;102653.81;5086157;28;20201;-82
2022/01/12 12:18:58;;;;;;;41.40;26.53;;;;;;;3.28;99.03;102642.31;5087641;28;20200;-78
2022/01/12 12:21:25;;;;;;;41.40;26.90;;;;;;;3.47;99.11;102638.91;5088621;28;20220;-79
2022/01/12 12:23:52;;;;;;;44.77;27.73;;;;;;;3.36;98.82;102643.56;5078867;28;20205;-80
2022/01/12 12:26:20;;;;;;;41.37;27.17;;;;;;;3.42;98.59;102642.97;5086865;28;20196;-80
2022/01/12 12:28:53;;;;;;;46.80;27.63;;;;;;;3.42;98.59;102642.09;5084739;28;20667;-81
2022/01/12 12:31:26;;;;;;;45.53;26.40;;;;;;;3.43;98.52;102652.50;5087492;28;20262;-80
2022/01/12 12:34:00;;;;;;;40.27;27.33;;;;;;;3.55;98.96;102641.84;5070770;28;20608;-80
2022/01/12 12:36:27;;;;;;;46.63;27.23;;;;;;;3.49;98.84;102636.38;5071481;28;20575;-82
2022/01/12 12:38:53;;;;;;;48.93;28.93;;;;;;;3.55;99.25;102627.22;5069625;28;20213;-80